Time;durP1;ratioP1;P1;durP2;ratioP2;P2;SDS_P1;SDS_P2;PMS_P1;PMS_P2;Temp;Humidity;BMP_temperature;BMP_pressure;BME280_temperature;BME280_humidity;BME280_pressure;Samples;Min_cycle;Max_cycle;Signal;HPM_P1;HPM_P2
2022/12/05 00:00:27;;;;;;;6.30;3.75;;;;;;;;;;5063992;28;20543;-43
2022/12/05 00:02:53;;;;;;;6.03;3.90;;;;;;;;;;5065042;28;20048;-46
2022/12/05 00:05:19;;;;;;;6.28;4.15;;;;;;;;;;5059856;28;20382;-43
2022/12/05 00:07:45;;;;;;;7.03;4.00;;;;;;;;;;5062447;28;20020;-43
2022/12/05 00:10:11;;;;;;;5.93;3.72;;;;;;;;;;5058745;28;20064;-43
2022/12/05 00:12:37;;;;;;;6.88;4.93;;;;;;;;;;5056097;28;20121;-43
2022/12/05 00:15:03;;;;;;;5.60;3.80;;;;;;;;;;5059624;28;20108;-43
2022/12/05 00:17:30;;;;;;;7.07;3.95;;;;;;;;;;5059695;28;20032;-43
2022/12/05 00:19:56;;;;;;;8.20;4.20;;;;;;;;;;5062569;28;20032;-47
2022/12/05 00:22:22;;;;;;;7.13;4.22;;;;;;;;;;5061519;28;20060;-44
2022/12/05 00:24:48;;;;;;;5.03;3.75;;;;;;;;;;5064675;28;20031;-43
2022/12/05 00:27:14;;;;;;;5.13;3.20;;;;;;;;;;5057755;28;20608;-44
2022/12/05 00:29:40;;;;;;;5.57;3.95;;;;;;;;;;5060236;28;20028;-46
2022/12/05 00:32:06;;;;;;;5.40;3.83;;;;;;;;;;5058624;28;20029;-44
2022/12/05 00:34:32;;;;;;;5.25;3.90;;;;;;;;;;5062766;28;20048;-43
2022/12/05 00:36:58;;;;;;;5.95;4.00;;;;;;;;;;5056461;28;20024;-46
2022/12/05 00:39:24;;;;;;;5.13;3.35;;;;;;;;;;5061916;28;20039;-43
2022/12/05 00:41:50;;;;;;;6.25;3.80;;;;;;;;;;5060598;28;20381;-43
2022/12/05 00:44:16;;;;;;;5.35;3.72;;;;;;;;;;5058128;28;20100;-44
2022/12/05 00:46:42;;;;;;;6.03;3.92;;;;;;;;;;5059503;28;20103;-43
2022/12/05 00:49:08;;;;;;;5.97;3.95;;;;;;;;;;5057150;28;20028;-43
2022/12/05 00:51:38;;;;;;;5.22;3.95;;;;;;;;;;5058184;28;20029;-43
2022/12/05 00:54:07;;;;;;;5.43;3.75;;;;;;;;;;5054675;28;20052;-43
2022/12/05 00:56:33;;;;;;;5.75;3.70;;;;;;;;;;5058145;28;20036;-44
2022/12/05 00:59:00;;;;;;;5.57;3.60;;;;;;;;;;5057928;28;20040;-43
2022/12/05 01:01:28;;;;;;;5.22;3.65;;;;;;;;;;5057783;28;20104;-43
2022/12/05 01:03:55;;;;;;;5.78;4.10;;;;;;;;;;5057211;28;20108;-46
2022/12/05 01:06:22;;;;;;;5.22;3.53;;;;;;;;;;5057192;28;20029;-44
2022/12/05 01:08:48;;;;;;;5.72;3.75;;;;;;;;;;5055761;28;20374;-44
2022/12/05 01:11:15;;;;;;;6.68;4.13;;;;;;;;;;5055089;28;20055;-44
2022/12/05 01:13:41;;;;;;;5.00;3.42;;;;;;;;;;5059688;28;20063;-43
2022/12/05 01:16:16;;;;;;;6.10;3.65;;;;;;;;;;5060198;28;20378;-43
2022/12/05 01:18:42;;;;;;;5.70;3.92;;;;;;;;;;5060033;28;20131;-44
2022/12/05 01:21:08;;;;;;;6.20;3.72;;;;;;;;;;5059121;28;20021;-43
2022/12/05 01:23:34;;;;;;;4.30;3.30;;;;;;;;;;5061655;28;20039;-44
2022/12/05 01:26:00;;;;;;;4.55;3.05;;;;;;;;;;5071746;28;20029;-44
2022/12/05 01:28:25;;;;;;;6.32;3.92;;;;;;;;;;5072922;28;20032;-43
2022/12/05 01:30:51;;;;;;;6.05;3.30;;;;;;;;;;5059934;28;20025;-43
2022/12/05 01:33:17;;;;;;;5.20;3.63;;;;;;;;;;5069114;28;20114;-43
2022/12/05 01:35:44;;;;;;;4.10;3.28;;;;;;;;;;5067944;28;20378;-43
2022/12/05 01:38:11;;;;;;;5.28;4.00;;;;;;;;;;5070726;28;20425;-43
2022/12/05 01:40:37;;;;;;;5.22;3.58;;;;;;;;;;5071842;28;20081;-43
2022/12/05 01:43:03;;;;;;;4.95;3.33;;;;;;;;;;5069849;28;20029;-43
2022/12/05 01:45:32;;;;;;;5.45;3.90;;;;;;;;;;5072757;28;20063;-43
2022/12/05 01:47:59;;;;;;;4.20;3.22;;;;;;;;;;5071133;28;20035;-43
2022/12/05 01:50:25;;;;;;;6.40;4.05;;;;;;;;;;5072410;28;20032;-43
2022/12/05 01:52:51;;;;;;;4.97;3.47;;;;;;;;;;5070566;28;20370;-43
2022/12/05 01:55:18;;;;;;;4.43;3.42;;;;;;;;;;5063842;28;20032;-43
2022/12/05 01:57:45;;;;;;;5.30;3.45;;;;;;;;;;5057020;28;20021;-44
2022/12/05 02:00:14;;;;;;;4.70;3.30;;;;;;;;;;5054490;28;20021;-43
2022/12/05 02:02:41;;;;;;;5.28;3.72;;;;;;;;;;5060939;28;20081;-46
2022/12/05 02:05:11;;;;;;;4.60;3.00;;;;;;;;;;5057624;28;20055;-46
2022/12/05 02:07:38;;;;;;;4.32;3.22;;;;;;;;;;5056937;28;20355;-43
2022/12/05 02:10:05;;;;;;;5.07;3.25;;;;;;;;;;5058677;28;20021;-43
2022/12/05 02:12:32;;;;;;;4.95;3.95;;;;;;;;;;5056187;28;20040;-43
2022/12/05 02:15:04;;;;;;;4.72;3.13;;;;;;;;;;5057216;28;20021;-44
2022/12/05 02:17:42;;;;;;;4.95;3.35;;;;;;;;;;5055690;28;20116;-43
2022/12/05 02:20:14;;;;;;;5.57;3.30;;;;;;;;;;5057092;28;20073;-43
2022/12/05 02:22:40;;;;;;;4.72;2.78;;;;;;;;;;5059449;28;20021;-43
2022/12/05 02:25:32;;;;;;;4.18;3.17;;;;;;;;;;5057541;28;20032;-44
2022/12/05 02:28:07;;;;;;;4.50;3.33;;;;;;;;;;5047552;28;20056;-43
2022/12/05 02:30:38;;;;;;;3.70;3.05;;;;;;;;;;5055607;28;20028;-44
2022/12/05 02:33:10;;;;;;;4.90;3.60;;;;;;;;;;5051969;28;20607;-46
2022/12/05 02:35:36;;;;;;;;;;;;;;;;;;5076074;28;20059;-43
2022/12/05 02:38:02;;;;;;;4.40;3.15;;;;;;;;;;5059330;28;20350;-43
2022/12/05 02:40:31;;;;;;;5.03;3.08;;;;;;;;;;5071053;28;20035;-43
2022/12/05 02:43:12;;;;;;;6.30;4.03;;;;;;;;;;5061672;28;20029;-46
2022/12/05 02:45:39;;;;;;;4.68;2.90;;;;;;;;;;5059888;28;20021;-43
2022/12/05 02:48:05;;;;;;;4.63;3.03;;;;;;;;;;5070030;28;20017;-43
2022/12/05 02:50:33;;;;;;;6.63;3.20;;;;;;;;;;5060666;28;20025;-43
2022/12/05 02:53:01;;;;;;;4.75;3.10;;;;;;;;;;5054537;28;20036;-44
2022/12/05 02:55:30;;;;;;;5.00;3.60;;;;;;;;;;5059035;28;20024;-44
2022/12/05 02:57:58;;;;;;;6.18;3.47;;;;;;;;;;5057263;28;20095;-46
2022/12/05 03:00:24;;;;;;;4.07;2.80;;;;;;;;;;5059943;28;20029;-43
2022/12/05 03:02:55;;;;;;;6.32;3.10;;;;;;;;;;5058314;28;20040;-44
2022/12/05 03:05:40;;;;;;;4.95;3.40;;;;;;;;;;5048792;28;20150;-46
2022/12/05 03:08:07;;;;;;;4.75;3.38;;;;;;;;;;5055019;28;20025;-43
2022/12/05 03:10:34;;;;;;;3.55;2.83;;;;;;;;;;5056459;28;20039;-43
2022/12/05 03:13:02;;;;;;;3.45;2.40;;;;;;;;;;5053895;28;20116;-46
2022/12/05 03:15:34;;;;;;;5.18;3.45;;;;;;;;;;5060248;28;20485;-44
2022/12/05 03:18:03;;;;;;;;;;;;;;;;;;5056761;28;20082;-43
2022/12/05 03:20:33;;;;;;;5.10;2.83;;;;;;;;;;5056443;28;19935;-43
2022/12/05 03:23:02;;;;;;;3.95;2.53;;;;;;;;;;5054145;28;20035;-44
2022/12/05 03:25:50;;;;;;;4.57;3.03;;;;;;;;;;5054868;28;20082;-43
2022/12/05 03:28:24;;;;;;;3.25;2.30;;;;;;;;;;5059175;28;20033;-43
2022/12/05 03:30:52;;;;;;;4.38;2.65;;;;;;;;;;5058100;28;20031;-44
2022/12/05 03:33:21;;;;;;;4.60;3.05;;;;;;;;;;5052632;28;20080;-44
2022/12/05 03:36:10;;;;;;;3.63;2.42;;;;;;;;;;5071656;28;20421;-44
2022/12/05 03:38:36;;;;;;;5.25;2.58;;;;;;;;;;5060283;28;20036;-43
2022/12/05 03:41:16;;;;;;;4.13;2.63;;;;;;;;;;5057937;28;20021;-43
2022/12/05 03:43:42;;;;;;;3.17;2.60;;;;;;;;;;5058256;28;20524;-43
2022/12/05 03:46:14;;;;;;;3.20;2.42;;;;;;;;;;5060718;28;20103;-43
2022/12/05 03:48:51;;;;;;;3.60;2.53;;;;;;;;;;5058720;28;20078;-46
2022/12/05 03:51:18;;;;;;;5.28;3.25;;;;;;;;;;5060192;28;20124;-44
2022/12/05 03:53:47;;;;;;;4.28;3.22;;;;;;;;;;5059863;28;20046;-43
2022/12/05 03:56:25;;;;;;;3.90;2.53;;;;;;;;;;5060881;28;20021;-43
2022/12/05 03:58:56;;;;;;;4.05;2.78;;;;;;;;;;5059914;28;20100;-43
2022/12/05 04:01:25;;;;;;;4.03;2.78;;;;;;;;;;5059013;28;20082;-43
2022/12/05 04:03:54;;;;;;;4.40;2.80;;;;;;;;;;5054287;28;20433;-45
2022/12/05 04:06:27;;;;;;;4.85;2.88;;;;;;;;;;5060865;28;20470;-43
2022/12/05 04:08:56;;;;;;;5.78;2.90;;;;;;;;;;5060724;28;20072;-43
2022/12/05 04:11:24;;;;;;;4.20;2.75;;;;;;;;;;5062069;28;20028;-43
2022/12/05 04:13:52;;;;;;;4.20;2.60;;;;;;;;;;5060500;28;20028;-43
2022/12/05 04:19:22;;;;;;;3.95;2.90;;;;;;;;;;5061244;28;20167;-43
2022/12/05 04:21:50;;;;;;;5.53;2.83;;;;;;;;;;5063069;28;20043;-43
2022/12/05 04:27:08;;;;;;;3.75;2.65;;;;;;;;;;5058669;28;20044;-43
2022/12/05 04:29:37;;;;;;;4.10;2.83;;;;;;;;;;5061609;28;20461;-44
2022/12/05 04:32:08;;;;;;;5.63;2.75;;;;;;;;;;5058532;28;20035;-44
2022/12/05 04:34:34;;;;;;;4.05;3.20;;;;;;;;;;5061989;28;20033;-43
2022/12/05 04:37:03;;;;;;;4.05;2.63;;;;;;;;;;5060909;28;20021;-45
2022/12/05 04:39:41;;;;;;;4.13;2.97;;;;;;;;;;5058918;28;20032;-43
2022/12/05 04:42:14;;;;;;;3.05;2.30;;;;;;;;;;5055298;28;20366;-43
2022/12/05 04:44:43;;;;;;;3.78;2.38;;;;;;;;;;5056618;28;20599;-43
2022/12/05 04:47:10;;;;;;;3.72;2.80;;;;;;;;;;5055772;28;20032;-43
2022/12/05 04:49:36;;;;;;;4.07;2.50;;;;;;;;;;5056197;28;20025;-43
2022/12/05 04:52:04;;;;;;;3.55;2.25;;;;;;;;;;5058101;28;20355;-43
2022/12/05 04:54:47;;;;;;;3.13;2.30;;;;;;;;;;5061186;28;20118;-43
2022/12/05 04:57:19;;;;;;;2.92;2.33;;;;;;;;;;5059568;28;20446;-45
2022/12/05 04:59:45;;;;;;;3.63;2.90;;;;;;;;;;5060837;28;20032;-44
2022/12/05 05:02:14;;;;;;;2.92;2.33;;;;;;;;;;5057245;28;20017;-43
2022/12/05 05:04:45;;;;;;;4.20;2.80;;;;;;;;;;5057411;28;20114;-43
2022/12/05 05:07:12;;;;;;;3.00;2.47;;;;;;;;;;5075562;28;20028;-43
2022/12/05 05:09:38;;;;;;;4.22;2.47;;;;;;;;;;5073220;28;20025;-43
2022/12/05 05:12:04;;;;;;;4.00;3.08;;;;;;;;;;5070821;28;20028;-44
2022/12/05 05:14:31;;;;;;;3.53;2.30;;;;;;;;;;5072947;28;20359;-45
2022/12/05 05:16:57;;;;;;;3.00;2.08;;;;;;;;;;5072450;28;20116;-47
2022/12/05 05:19:23;;;;;;;3.25;2.58;;;;;;;;;;5059608;28;20130;-44
2022/12/05 05:21:49;;;;;;;3.90;2.70;;;;;;;;;;5070039;28;20024;-45
2022/12/05 05:24:15;;;;;;;3.50;2.28;;;;;;;;;;5072829;28;20034;-45
2022/12/05 05:26:42;;;;;;;3.42;2.53;;;;;;;;;;5069824;28;20063;-45
2022/12/05 05:29:08;;;;;;;3.38;2.60;;;;;;;;;;5058819;28;20054;-45
2022/12/05 05:31:35;;;;;;;4.07;2.60;;;;;;;;;;5066493;28;20032;-42
2022/12/05 05:34:01;;;;;;;3.20;2.30;;;;;;;;;;5069982;28;20028;-42
2022/12/05 05:36:28;;;;;;;3.90;2.28;;;;;;;;;;5066536;28;20021;-42
2022/12/05 05:38:55;;;;;;;3.85;2.65;;;;;;;;;;5060204;28;20028;-45
2022/12/05 05:41:23;;;;;;;5.10;2.47;;;;;;;;;;5068805;28;20031;-42
2022/12/05 05:43:49;;;;;;;3.50;2.90;;;;;;;;;;5070948;28;20028;-42
2022/12/05 05:46:16;;;;;;;6.90;3.10;;;;;;;;;;5064718;28;20020;-41
2022/12/05 05:48:42;;;;;;;3.88;2.40;;;;;;;;;;5064183;28;20031;-41
2022/12/05 05:51:10;;;;;;;5.78;2.60;;;;;;;;;;5058471;28;20021;-42
2022/12/05 05:53:36;;;;;;;5.00;2.70;;;;;;;;;;5075379;28;20497;-41
2022/12/05 05:56:03;;;;;;;3.75;2.35;;;;;;;;;;5071258;28;20043;-44
2022/12/05 05:58:29;;;;;;;5.38;2.50;;;;;;;;;;5055200;28;20367;-44
2022/12/05 06:01:01;;;;;;;6.53;2.83;;;;;;;;;;5061432;28;20043;-47
2022/12/05 06:03:27;;;;;;;6.57;2.42;;;;;;;;;;5063400;28;20467;-44
2022/12/05 06:05:57;;;;;;;9.05;3.33;;;;;;;;;;5066866;28;20031;-46
2022/12/05 06:08:23;;;;;;;6.70;2.65;;;;;;;;;;5071345;28;20056;-44
2022/12/05 06:10:49;;;;;;;6.60;2.85;;;;;;;;;;5066548;28;20027;-44
2022/12/05 06:13:15;;;;;;;6.13;2.80;;;;;;;;;;5070518;28;20020;-45
2022/12/05 06:15:41;;;;;;;4.78;2.63;;;;;;;;;;5070494;28;20029;-44
2022/12/05 06:18:07;;;;;;;5.90;2.65;;;;;;;;;;5070241;28;20425;-44
2022/12/05 06:20:33;;;;;;;4.93;2.45;;;;;;;;;;5067660;28;20116;-44
2022/12/05 06:22:59;;;;;;;4.30;2.20;;;;;;;;;;5070231;28;20052;-44
2022/12/05 06:25:25;;;;;;;3.97;2.47;;;;;;;;;;5071267;28;20105;-44
2022/12/05 06:27:51;;;;;;;3.40;2.17;;;;;;;;;;5065032;28;20025;-44
2022/12/05 06:30:17;;;;;;;4.95;2.60;;;;;;;;;;5068280;28;20023;-44
2022/12/05 06:32:43;;;;;;;5.15;2.72;;;;;;;;;;5069549;28;20466;-44
2022/12/05 06:35:14;;;;;;;3.92;2.60;;;;;;;;;;5069884;28;20109;-44
2022/12/05 06:37:41;;;;;;;6.18;2.63;;;;;;;;;;5064419;28;20115;-44
2022/12/05 06:40:07;;;;;;;4.70;2.42;;;;;;;;;;5069538;28;20103;-45
2022/12/05 06:42:33;;;;;;;3.75;2.15;;;;;;;;;;5060935;28;20037;-44
2022/12/05 06:44:59;;;;;;;5.55;2.40;;;;;;;;;;5061694;28;20027;-45
2022/12/05 06:47:25;;;;;;;4.00;2.47;;;;;;;;;;5069047;28;20078;-45
2022/12/05 06:49:51;;;;;;;4.47;2.72;;;;;;;;;;5050203;28;20561;-44
2022/12/05 06:52:17;;;;;;;4.25;2.22;;;;;;;;;;5064032;28;20036;-44
2022/12/05 06:54:43;;;;;;;3.85;2.15;;;;;;;;;;5069044;28;20048;-44
2022/12/05 06:57:09;;;;;;;4.45;2.90;;;;;;;;;;5069812;28;20470;-44
2022/12/05 06:59:35;;;;;;;6.10;2.75;;;;;;;;;;5055550;28;20025;-44
2022/12/05 07:02:01;;;;;;;4.13;2.63;;;;;;;;;;5065575;28;20041;-45
2022/12/05 07:04:27;;;;;;;4.15;3.03;;;;;;;;;;5069091;28;20024;-44
2022/12/05 07:06:54;;;;;;;5.60;2.33;;;;;;;;;;5083293;28;20065;-46
2022/12/05 07:09:44;;;;;;;4.82;3.10;;;;;;;;;;5067057;28;20032;-45
2022/12/05 07:12:09;;;;;;;3.08;2.30;;;;;;;;;;5073635;28;20032;-42
2022/12/05 07:14:35;;;;;;;5.80;2.60;;;;;;;;;;5075212;28;20021;-41
2022/12/05 07:17:01;;;;;;;6.00;3.15;;;;;;;;;;5074029;28;20016;-42
2022/12/05 07:19:27;;;;;;;7.30;2.85;;;;;;;;;;5071676;28;20167;-42
2022/12/05 07:21:53;;;;;;;5.05;2.85;;;;;;;;;;5071638;28;20031;-41
2022/12/05 07:24:19;;;;;;;6.53;2.78;;;;;;;;;;5080337;28;20024;-42
2022/12/05 07:26:45;;;;;;;6.80;2.90;;;;;;;;;;5073649;28;20029;-42
2022/12/05 07:29:11;;;;;;;4.60;2.70;;;;;;;;;;5071891;28;20027;-42
2022/12/05 07:31:37;;;;;;;5.97;3.00;;;;;;;;;;5073477;28;20035;-41
2022/12/05 07:34:03;;;;;;;7.43;2.83;;;;;;;;;;5073894;28;20040;-42
2022/12/05 07:36:29;;;;;;;4.97;2.97;;;;;;;;;;5074235;28;20044;-42
2022/12/05 07:38:56;;;;;;;9.65;3.30;;;;;;;;;;5074520;28;20021;-44
2022/12/05 07:41:26;;;;;;;6.65;2.90;;;;;;;;;;5070565;28;20490;-43
2022/12/05 07:43:53;;;;;;;5.50;3.15;;;;;;;;;;5071257;28;20116;-41
2022/12/05 07:46:19;;;;;;;4.40;2.00;;;;;;;;;;5071949;28;20032;-41
2022/12/05 07:48:46;;;;;;;3.70;2.72;;;;;;;;;;5073994;28;20104;-42
2022/12/05 07:51:12;;;;;;;4.18;2.53;;;;;;;;;;5070486;28;20449;-42
2022/12/05 07:53:41;;;;;;;5.57;2.70;;;;;;;;;;5071999;28;20143;-41
2022/12/05 07:56:08;;;;;;;3.28;2.25;;;;;;;;;;5072971;28;20077;-42
2022/12/05 07:58:35;;;;;;;3.90;2.17;;;;;;;;;;5071213;28;20021;-42
2022/12/05 08:01:11;;;;;;;5.10;3.17;;;;;;;;;;5069309;28;20032;-42
2022/12/05 08:03:37;;;;;;;4.97;3.33;;;;;;;;;;5073976;28;20097;-42
2022/12/05 08:06:08;;;;;;;2.83;2.15;;;;;;;;;;5073053;28;20074;-42
2022/12/05 08:08:33;;;;;;;2.88;2.30;;;;;;;;;;5064897;28;20020;-42
2022/12/05 08:11:10;;;;;;;4.13;2.22;;;;;;;;;;5069389;28;20830;-43
2022/12/05 08:13:36;;;;;;;3.85;2.45;;;;;;;;;;5069506;28;20037;-42
2022/12/05 08:16:04;;;;;;;3.75;2.40;;;;;;;;;;5074091;28;20416;-42
2022/12/05 08:18:30;;;;;;;5.65;2.67;;;;;;;;;;5073576;28;20663;-42
2022/12/05 08:21:00;;;;;;;7.18;3.13;;;;;;;;;;5069757;28;20039;-44
2022/12/05 08:23:28;;;;;;;5.45;2.92;;;;;;;;;;5073642;28;20023;-41
2022/12/05 08:25:54;;;;;;;5.75;2.80;;;;;;;;;;5073389;28;20081;-44
2022/12/05 08:28:20;;;;;;;3.80;2.70;;;;;;;;;;5054355;28;20492;-42
2022/12/05 08:30:46;;;;;;;4.97;2.88;;;;;;;;;;5069162;28;20059;-42
2022/12/05 08:33:12;;;;;;;3.95;2.35;;;;;;;;;;5070943;28;20458;-42
2022/12/05 08:35:37;;;;;;;11.23;3.97;;;;;;;;;;5069483;28;20040;-41
2022/12/05 08:38:03;;;;;;;5.90;3.15;;;;;;;;;;5070063;28;20024;-42
2022/12/05 08:40:30;;;;;;;8.18;3.30;;;;;;;;;;5070844;28;20032;-42
2022/12/05 08:42:56;;;;;;;5.25;3.05;;;;;;;;;;5064174;28;20029;-45
2022/12/05 08:45:22;;;;;;;7.20;3.45;;;;;;;;;;5063752;28;20028;-42
2022/12/05 08:47:48;;;;;;;4.47;3.05;;;;;;;;;;5073280;28;20112;-41
2022/12/05 08:50:13;;;;;;;3.83;2.35;;;;;;;;;;5071798;28;20029;-41
2022/12/05 08:52:39;;;;;;;4.35;2.85;;;;;;;;;;5061838;28;20472;-43
2022/12/05 08:55:06;;;;;;;6.85;2.67;;;;;;;;;;5065377;28;20044;-42
2022/12/05 08:57:32;;;;;;;6.20;2.33;;;;;;;;;;5071257;28;20025;-41
2022/12/05 08:59:58;;;;;;;5.63;2.70;;;;;;;;;;5071018;28;20488;-45
2022/12/05 09:02:24;;;;;;;7.13;2.88;;;;;;;;;;5057532;28;20028;-42
2022/12/05 09:04:50;;;;;;;2.97;2.05;;;;;;;;;;5071228;28;20031;-42
2022/12/05 09:07:16;;;;;;;3.17;2.20;;;;;;;;;;5070400;28;20024;-42
2022/12/05 09:09:42;;;;;;;4.85;2.47;;;;;;;;;;5071076;28;20040;-42
2022/12/05 09:12:08;;;;;;;3.65;2.67;;;;;;;;;;5059398;28;20029;-42
2022/12/05 09:14:36;;;;;;;5.97;2.28;;;;;;;;;;5071502;28;20040;-45
2022/12/05 09:17:03;;;;;;;4.38;2.30;;;;;;;;;;5070417;28;20016;-44
2022/12/05 09:19:29;;;;;;;3.75;2.40;;;;;;;;;;5071353;28;20032;-44
2022/12/05 09:21:56;;;;;;;4.78;2.30;;;;;;;;;;5062529;28;20466;-46
2022/12/05 09:24:22;;;;;;;3.90;2.20;;;;;;;;;;5069065;28;20043;-44
2022/12/05 09:26:48;;;;;;;3.75;2.33;;;;;;;;;;5059543;28;20385;-45
2022/12/05 09:29:14;;;;;;;3.30;2.03;;;;;;;;;;5068438;28;20558;-47
2022/12/05 09:31:41;;;;;;;4.72;2.03;;;;;;;;;;5065737;28;20033;-45
2022/12/05 09:34:08;;;;;;;3.38;1.98;;;;;;;;;;5072132;28;20147;-45
2022/12/05 09:36:34;;;;;;;3.83;2.25;;;;;;;;;;5071009;28;20021;-45
2022/12/05 09:39:01;;;;;;;4.35;2.25;;;;;;;;;;5071309;28;20025;-45
2022/12/05 09:44:39;;;;;;;3.47;2.22;;;;;;;;;;5064147;28;20158;-44
2022/12/05 09:47:04;;;;;;;3.10;1.85;;;;;;;;;;5057773;28;20025;-45
2022/12/05 09:49:32;;;;;;;5.10;2.53;;;;;;;;;;5071465;28;20070;-45
2022/12/05 09:51:59;;;;;;;3.15;2.45;;;;;;;;;;5065312;28;20094;-47
2022/12/05 09:54:27;;;;;;;3.65;2.05;;;;;;;;;;5030790;28;1085939;-44
2022/12/05 09:56:53;;;;;;;2.92;2.10;;;;;;;;;;5053409;28;20117;-45
2022/12/05 09:59:19;;;;;;;4.22;2.17;;;;;;;;;;5068348;28;20083;-45
2022/12/05 10:01:54;;;;;;;2.78;1.70;;;;;;;;;;5069168;28;20047;-45
2022/12/05 10:04:36;;;;;;;3.70;2.00;;;;;;;;;;5062324;28;20493;-44
2022/12/05 10:07:02;;;;;;;4.43;2.17;;;;;;;;;;5061733;28;20039;-46
2022/12/05 10:09:33;;;;;;;3.22;2.00;;;;;;;;;;5070530;28;20036;-44
2022/12/05 10:12:22;;;;;;;1.98;1.65;;;;;;;;;;5066446;28;20040;-45
2022/12/05 10:14:48;;;;;;;3.20;1.90;;;;;;;;;;5034172;28;20050;-44
2022/12/05 10:17:20;;;;;;;2.13;1.92;;;;;;;;;;5060102;28;20292;-45
2022/12/05 10:19:46;;;;;;;;;;;;;;;;;;5077409;28;20112;-46
2022/12/05 10:22:14;;;;;;;4.35;2.80;;;;;;;;;;5072328;28;19985;-45
2022/12/05 10:24:49;;;;;;;7.38;2.45;;;;;;;;;;5069695;28;20040;-45
2022/12/05 10:27:19;;;;;;;2.75;2.05;;;;;;;;;;5069029;28;20068;-46
2022/12/05 10:29:51;;;;;;;3.75;1.90;;;;;;;;;;5062722;28;20119;-46
2022/12/05 10:32:23;;;;;;;3.72;1.50;;;;;;;;;;5058597;28;20029;-45
2022/12/05 10:34:50;;;;;;;2.85;2.05;;;;;;;;;;5064608;28;20028;-45
2022/12/05 10:37:20;;;;;;;2.42;1.92;;;;;;;;;;5063736;28;20048;-46
2022/12/05 10:39:47;;;;;;;2.30;1.58;;;;;;;;;;5070891;28;20410;-45
2022/12/05 10:42:19;;;;;;;2.63;1.70;;;;;;;;;;5062381;28;20501;-45
2022/12/05 10:44:45;;;;;;;3.78;2.13;;;;;;;;;;5067997;28;20024;-45
2022/12/05 10:47:12;;;;;;;3.50;1.40;;;;;;;;;;5065838;28;20029;-45
2022/12/05 10:49:38;;;;;;;2.55;1.55;;;;;;;;;;5068211;28;20024;-48
2022/12/05 10:52:04;;;;;;;2.22;1.52;;;;;;;;;;5061833;28;20426;-45
2022/12/05 10:54:31;;;;;;;3.17;2.08;;;;;;;;;;5068141;28;20106;-47
2022/12/05 10:56:58;;;;;;;3.95;1.88;;;;;;;;;;5064499;28;20033;-47
2022/12/05 10:59:25;;;;;;;2.45;1.73;;;;;;;;;;5070005;28;20028;-45
2022/12/05 11:01:53;;;;;;;6.03;2.45;;;;;;;;;;5070747;28;20372;-45
2022/12/05 11:04:20;;;;;;;3.47;1.75;;;;;;;;;;5068267;28;20047;-46
2022/12/05 11:06:55;;;;;;;3.30;2.03;;;;;;;;;;5068670;28;20195;-45
2022/12/05 11:09:22;;;;;;;4.53;2.03;;;;;;;;;;5059877;28;20021;-46
2022/12/05 11:12:03;;;;;;;3.97;1.77;;;;;;;;;;5065429;28;20029;-45
2022/12/05 11:14:30;;;;;;;2.30;1.60;;;;;;;;;;5068590;28;20443;-47
2022/12/05 11:16:57;;;;;;;3.92;1.98;;;;;;;;;;5060794;28;20081;-48
2022/12/05 11:19:23;;;;;;;1.73;1.40;;;;;;;;;;5070355;28;20016;-45
2022/12/05 11:21:49;;;;;;;3.67;1.85;;;;;;;;;;5066716;28;20035;-45
2022/12/05 11:24:29;;;;;;;6.63;1.85;;;;;;;;;;5068477;28;20086;-45
2022/12/05 11:27:19;;;;;;;7.68;3.15;;;;;;;;;;5068614;28;20032;-42
2022/12/05 11:29:54;;;;;;;13.80;4.13;;;;;;;;;;5067674;28;20024;-37
2022/12/05 11:32:25;;;;;;;10.07;4.43;;;;;;;;;;5064441;28;20033;-37
2022/12/05 11:34:54;;;;;;;8.35;4.75;;;;;;;;;;5067006;28;20070;-37
2022/12/05 11:37:23;;;;;;;7.35;4.50;;;;;;;;;;5068448;28;20076;-37
2022/12/05 11:39:49;;;;;;;16.88;5.55;;;;;;;;;;5067221;28;20230;-44
2022/12/05 11:42:19;;;;;;;13.13;5.82;;;;;;;;;;5063124;28;20195;-44
2022/12/05 11:44:45;;;;;;;7.47;5.82;;;;;;;;;;5068309;28;20027;-44
2022/12/05 11:47:29;;;;;;;8.57;4.78;;;;;;;;;;5068406;28;20389;-44
2022/12/05 11:50:07;;;;;;;6.18;3.95;;;;;;;;;;5065324;28;20025;-46
2022/12/05 11:52:33;;;;;;;7.82;3.55;;;;;;;;;;5058635;28;20123;-44
2022/12/05 11:55:15;;;;;;;7.05;3.35;;;;;;;;;;5064002;28;20442;-45
2022/12/05 11:57:59;;;;;;;5.25;3.03;;;;;;;;;;5066116;28;20045;-44
2022/12/05 12:00:35;;;;;;;7.57;3.35;;;;;;;;;;5070049;28;20982;-44
2022/12/05 12:03:19;;;;;;;6.15;2.40;;;;;;;;;;5068196;28;20473;-45
2022/12/05 12:06:08;;;;;;;4.10;2.47;;;;;;;;;;5072141;28;20025;-44
2022/12/05 12:08:53;;;;;;;4.38;1.95;;;;;;;;;;5049313;28;20032;-44
2022/12/05 12:11:42;;;;;;;4.47;2.20;;;;;;;;;;5059247;28;20203;-44
2022/12/05 12:14:17;;;;;;;3.90;2.00;;;;;;;;;;5071185;28;20043;-45
2022/12/05 12:17:05;;;;;;;2.92;1.73;;;;;;;;;;5060002;28;20442;-44
2022/12/05 12:19:38;;;;;;;2.78;1.65;;;;;;;;;;5072360;28;20381;-45
2022/12/05 12:22:13;;;;;;;2.88;1.88;;;;;;;;;;5060170;28;20039;-46
2022/12/05 12:24:54;;;;;;;3.05;1.73;;;;;;;;;;5066332;28;20478;-44
2022/12/05 12:27:39;;;;;;;3.50;1.50;;;;;;;;;;5071543;28;20033;-44
2022/12/05 12:30:24;;;;;;;3.45;1.90;;;;;;;;;;5067410;28;20067;-44
2022/12/05 12:33:10;;;;;;;3.55;2.25;;;;;;;;;;5059891;28;20063;-44
2022/12/05 12:35:47;;;;;;;5.82;1.90;;;;;;;;;;5068869;28;20033;-44
2022/12/05 12:38:13;;;;;;;2.75;1.45;;;;;;;;;;5061120;28;20537;-46
2022/12/05 12:40:39;;;;;;;3.47;1.48;;;;;;;;;;5064511;28;20112;-42
2022/12/05 12:43:11;;;;;;;3.67;1.85;;;;;;;;;;5061048;28;20394;-44
2022/12/05 12:45:37;;;;;;;;;;;;;;;;;;5069233;28;20020;-43
2022/12/05 12:48:03;;;;;;;3.75;2.80;;;;;;;;;;5070934;28;19908;-44
2022/12/05 12:50:33;;;;;;;3.50;2.25;;;;;;;;;;5061611;28;20033;-43
2022/12/05 12:53:05;;;;;;;3.90;2.45;;;;;;;;;;5062375;28;20508;-46
2022/12/05 12:55:44;;;;;;;2.55;1.50;;;;;;;;;;5058671;28;20016;-43
2022/12/05 12:58:16;;;;;;;4.25;2.00;;;;;;;;;;5070462;28;20111;-43
2022/12/05 13:00:45;;;;;;;2.78;1.98;;;;;;;;;;5065023;28;20033;-45
2022/12/05 13:03:11;;;;;;;3.67;2.17;;;;;;;;;;5064461;28;20055;-43
2022/12/05 13:05:42;;;;;;;4.15;2.50;;;;;;;;;;5061202;28;20100;-43
2022/12/05 13:08:13;;;;;;;3.42;2.20;;;;;;;;;;5063531;28;20563;-43
2022/12/05 13:10:42;;;;;;;4.63;2.30;;;;;;;;;;5067758;28;20222;-43
2022/12/05 13:13:10;;;;;;;4.05;2.13;;;;;;;;;;5067259;28;21860;-45
2022/12/05 13:15:56;;;;;;;6.00;2.15;;;;;;;;;;5065147;28;20039;-44
2022/12/05 13:18:24;;;;;;;7.97;2.33;;;;;;;;;;5065062;28;20050;-44
2022/12/05 13:20:52;;;;;;;5.85;2.20;;;;;;;;;;5070187;28;20017;-44
2022/12/05 13:23:20;;;;;;;3.80;2.28;;;;;;;;;;5063812;28;20930;-45
2022/12/05 13:25:47;;;;;;;4.72;2.85;;;;;;;;;;5058578;28;20024;-45
2022/12/05 13:28:25;;;;;;;4.32;2.13;;;;;;;;;;5069061;28;20544;-44
2022/12/05 13:31:00;;;;;;;3.65;1.95;;;;;;;;;;5062878;28;20460;-44
2022/12/05 13:33:28;;;;;;;2.45;1.77;;;;;;;;;;5064036;28;20062;-45
2022/12/05 13:44:30;;;;;;;2.60;1.88;;;;;;;;;;5058229;28;20114;-44
2022/12/05 13:46:56;;;;;;;4.53;2.15;;;;;;;;;;5067208;28;20024;-48
2022/12/05 13:49:52;;;;;;;4.72;2.05;;;;;;;;;;5085962;28;20032;-45
2022/12/05 13:52:20;;;;;;;3.25;2.05;;;;;;;;;;5038323;28;20043;-45
2022/12/05 13:55:06;;;;;;;3.25;2.10;;;;;;;;;;5064831;28;20056;-45
2022/12/05 13:57:38;;;;;;;2.28;1.58;;;;;;;;;;5056556;28;20048;-45
2022/12/05 14:00:05;;;;;;;;;;;;;;;;;;5069154;28;20094;-46
2022/12/05 14:02:46;;;;;;;3.83;2.03;;;;;;;;;;5071616;28;19950;-45
2022/12/05 14:05:17;;;;;;;4.88;1.80;;;;;;;;;;5063062;28;20056;-45
2022/12/05 14:07:44;;;;;;;4.35;2.08;;;;;;;;;;5070053;28;20029;-45
2022/12/05 14:10:11;;;;;;;5.07;2.17;;;;;;;;;;5066857;28;20120;-44
2022/12/05 14:12:43;;;;;;;4.57;2.17;;;;;;;;;;5067377;28;20028;-45
2022/12/05 14:15:09;;;;;;;;;;;;;;;;;;5065479;28;20094;-45
2022/12/05 14:17:42;;;;;;;4.53;2.22;;;;;;;;;;5069771;28;20312;-44
2022/12/05 14:20:09;;;;;;;5.72;2.10;;;;;;;;;;5064281;28;20056;-45
2022/12/05 14:22:53;;;;;;;3.15;2.00;;;;;;;;;;5073223;28;20028;-45
2022/12/05 14:25:38;;;;;;;3.38;2.17;;;;;;;;;;5057379;28;20044;-45
2022/12/05 14:28:15;;;;;;;3.78;2.00;;;;;;;;;;5060600;28;20382;-45
2022/12/05 14:30:41;;;;;;;3.70;2.00;;;;;;;;;;5053097;28;20490;-45
2022/12/05 14:33:14;;;;;;;3.30;2.35;;;;;;;;;;5057638;28;20044;-45
2022/12/05 14:35:42;;;;;;;4.43;2.20;;;;;;;;;;5059865;28;20402;-47
2022/12/05 14:38:18;;;;;;;3.97;2.05;;;;;;;;;;5068491;28;20021;-45
2022/12/05 14:40:45;;;;;;;3.08;1.92;;;;;;;;;;5054602;28;20048;-45
2022/12/05 14:43:41;;;;;;;4.05;2.15;;;;;;;;;;5057308;28;20032;-43
2022/12/05 14:46:14;;;;;;;3.72;2.53;;;;;;;;;;5056760;28;20060;-45
2022/12/05 14:48:45;;;;;;;4.88;2.28;;;;;;;;;;5065758;28;20021;-45
2022/12/05 14:51:29;;;;;;;3.60;2.00;;;;;;;;;;5060368;28;20136;-45
2022/12/05 14:53:56;;;;;;;2.58;2.00;;;;;;;;;;5064040;28;20059;-47
2022/12/05 14:56:26;;;;;;;2.80;2.08;;;;;;;;;;5065605;28;20090;-45
2022/12/05 14:59:06;;;;;;;2.78;2.28;;;;;;;;;;5070554;28;20538;-45
2022/12/05 15:02:11;;;;;;;3.63;2.03;;;;;;;;;;5051097;28;20048;-45
2022/12/05 15:04:43;;;;;;;4.35;2.20;;;;;;;;;;5024563;28;20087;-45
2022/12/05 15:07:15;;;;;;;3.88;2.08;;;;;;;;;;5023278;28;20031;-45
2022/12/05 15:10:01;;;;;;;5.05;2.50;;;;;;;;;;5026821;28;20029;-45
2022/12/05 15:12:45;;;;;;;4.95;2.17;;;;;;;;;;5018649;28;20136;-45
2022/12/05 15:15:16;;;;;;;4.97;2.67;;;;;;;;;;5027171;28;20061;-44
2022/12/05 15:17:46;;;;;;;5.45;1.67;;;;;;;;;;5026931;28;20053;-45